createdAt,value
2022-12-15T00:00:58.007Z,98739.88
2022-12-15T00:03:45.947Z,98740.75
2022-12-15T00:06:34.455Z,98737.28
2022-12-15T00:09:27.659Z,98734.72
2022-12-15T00:12:18.459Z,98731.31
2022-12-15T00:15:06.158Z,98725.28
2022-12-15T00:17:54.026Z,98727.84
2022-12-15T00:20:42.512Z,98727.00
2022-12-15T00:23:32.295Z,98726.16
2022-12-15T00:26:19.950Z,98721.03
2022-12-15T00:29:07.748Z,98726.19
2022-12-15T00:31:55.337Z,98725.31
2022-12-15T00:34:42.980Z,98717.63
2022-12-15T00:37:30.590Z,98723.63
2022-12-15T00:40:00.189Z,98722.75
2022-12-15T00:42:33.176Z,98715.03
2022-12-15T00:45:03.300Z,98717.63
2022-12-15T00:47:34.807Z,98727.91
2022-12-15T00:50:22.858Z,98733.94
2022-12-15T00:53:11.255Z,98740.81
2022-12-15T00:55:58.784Z,98744.25
2022-12-15T00:58:46.923Z,98735.66
2022-12-15T01:01:35.011Z,98731.38
2022-12-15T01:04:23.134Z,98741.63
2022-12-15T01:07:10.689Z,98738.22
2022-12-15T01:09:58.374Z,98748.50
2022-12-15T01:12:46.165Z,98751.91
2022-12-15T01:15:33.880Z,98752.78
2022-12-15T01:18:21.856Z,98764.75
2022-12-15T01:21:02.368Z,98769.91
2022-12-15T01:23:33.120Z,98773.34
2022-12-15T01:26:03.707Z,98769.06
2022-12-15T01:28:33.374Z,98767.34
2022-12-15T01:31:03.001Z,98784.44
2022-12-15T01:33:32.684Z,98793.03
2022-12-15T01:36:03.433Z,98795.59
2022-12-15T01:38:33.042Z,98799.84
2022-12-15T01:41:09.111Z,98791.31
2022-12-15T01:43:41.198Z,98794.72
2022-12-15T01:46:18.818Z,98796.47
2022-12-15T01:48:59.011Z,98796.44
2022-12-15T01:51:37.255Z,98797.28
2022-12-15T01:54:10.023Z,98798.16
2022-12-15T01:56:43.943Z,98804.16
2022-12-15T01:59:17.689Z,98806.72
2022-12-15T02:01:50.027Z,98805.84
2022-12-15T02:04:24.968Z,98814.41
2022-12-15T02:06:54.815Z,98822.94
2022-12-15T02:09:28.115Z,98831.50
2022-12-15T02:12:03.574Z,98840.06
2022-12-15T02:15:02.109Z,98840.03
2022-12-15T02:17:47.443Z,98841.78
2022-12-15T02:20:19.787Z,98840.03
2022-12-15T02:23:25.904Z,98847.81
2022-12-15T02:26:32.397Z,98848.66
2022-12-15T02:29:29.324Z,98866.66
2022-12-15T02:32:10.522Z,98857.19
2022-12-15T02:35:01.162Z,98863.19
2022-12-15T02:37:39.851Z,98861.50
2022-12-15T02:40:11.561Z,98865.78
2022-12-15T02:42:47.236Z,98867.53
2022-12-15T02:45:23.551Z,98864.97
2022-12-15T02:48:17.733Z,98868.41
2022-12-15T02:51:22.498Z,98861.53
2022-12-15T02:54:07.380Z,98872.72
2022-12-15T02:56:56.519Z,98871.84
2022-12-15T02:59:47.129Z,98876.16
2022-12-15T03:02:17.341Z,98871.88
2022-12-15T03:04:47.180Z,98875.28
2022-12-15T03:07:16.665Z,98886.41
2022-12-15T03:09:45.960Z,98892.44
2022-12-15T03:12:17.664Z,98889.88
2022-12-15T03:14:47.108Z,98891.53
2022-12-15T03:17:16.573Z,98884.69
2022-12-15T03:19:46.488Z,98878.63
2022-12-15T03:22:19.123Z,98888.91
2022-12-15T03:24:49.596Z,98892.38
2022-12-15T03:27:19.153Z,98895.75
2022-12-15T03:29:48.586Z,98893.16
2022-12-15T03:32:18.122Z,98900.00
2022-12-15T03:34:47.640Z,98903.38
2022-12-15T03:37:17.413Z,98906.78
2022-12-15T03:39:47.007Z,98909.38
2022-12-15T03:42:36.470Z,98922.19
2022-12-15T03:45:06.810Z,98921.25
2022-12-15T03:47:36.349Z,98927.22
2022-12-15T03:50:06.296Z,98930.63
2022-12-15T03:52:36.004Z,98940.03
2022-12-15T03:55:06.411Z,98934.84
2022-12-15T03:57:36.368Z,98943.38
2022-12-15T04:00:08.231Z,98946.69
2022-12-15T04:02:44.584Z,98950.03
2022-12-15T04:05:24.213Z,98959.34
2022-12-15T04:07:54.918Z,98954.19
2022-12-15T04:10:31.888Z,98954.16
2022-12-15T04:13:09.860Z,98942.03
2022-12-15T04:15:41.743Z,98947.91
2022-12-15T04:18:13.089Z,98946.19
2022-12-15T04:20:42.722Z,98946.94
2022-12-15T04:23:12.318Z,98947.72
2022-12-15T04:26:00.284Z,98943.31
2022-12-15T04:28:48.196Z,98947.50
2022-12-15T04:31:45.231Z,98949.03
2022-12-15T04:34:39.861Z,98961.00
2022-12-15T04:37:31.326Z,98952.22
2022-12-15T04:40:20.207Z,98950.41
2022-12-15T04:43:08.554Z,98946.09
2022-12-15T04:45:56.723Z,98958.00
2022-12-15T04:48:44.713Z,98943.16
2022-12-15T04:51:32.594Z,98948.22
2022-12-15T04:54:20.545Z,98949.81
2022-12-15T04:57:08.715Z,98949.66
2022-12-15T04:59:56.653Z,98952.16
2022-12-15T05:02:45.028Z,98957.16
2022-12-15T05:05:32.789Z,98958.72
2022-12-15T05:08:20.989Z,98956.78
2022-12-15T05:11:08.656Z,98955.69
2022-12-15T05:13:56.457Z,98960.69
2022-12-15T05:16:44.383Z,98963.97
2022-12-15T05:19:32.433Z,98960.31
2022-12-15T05:22:20.163Z,98956.63
2022-12-15T05:25:08.026Z,98960.72
2022-12-15T05:27:55.891Z,98953.75
2022-12-15T05:30:43.522Z,98955.34
2022-12-15T05:33:12.953Z,98951.56
2022-12-15T05:35:42.345Z,98951.25
2022-12-15T05:38:11.779Z,98949.47
2022-12-15T05:40:41.427Z,98945.78
2022-12-15T05:43:11.021Z,98944.00
2022-12-15T05:45:40.847Z,98938.56
2022-12-15T05:48:11.170Z,98934.84
2022-12-15T05:50:40.944Z,98934.78
2022-12-15T05:53:10.381Z,98924.09
2022-12-15T05:55:40.213Z,98920.44
2022-12-15T05:58:09.658Z,98911.63
2022-12-15T06:00:39.574Z,98912.34
2022-12-15T06:03:09.110Z,98908.28
2022-12-15T06:05:38.647Z,98904.66
2022-12-15T06:08:08.598Z,98896.47
2022-12-15T06:10:38.038Z,98895.56
2022-12-15T06:13:07.539Z,98887.66
2022-12-15T06:15:37.441Z,98887.25
2022-12-15T06:18:07.132Z,98883.53
2022-12-15T06:20:36.683Z,98876.50
2022-12-15T06:23:06.499Z,98872.84
2022-12-15T06:25:36.295Z,98863.22
2022-12-15T06:28:09.241Z,98863.78
2022-12-15T06:30:40.249Z,98848.75
2022-12-15T06:33:10.041Z,98861.75
2022-12-15T06:35:39.802Z,98851.88
2022-12-15T06:38:09.840Z,98851.63
2022-12-15T06:40:40.698Z,98843.94
2022-12-15T06:43:10.602Z,98850.59
2022-12-15T06:45:40.273Z,98846.91
2022-12-15T06:48:09.943Z,98838.06
2022-12-15T06:50:39.910Z,98841.16
2022-12-15T06:53:09.580Z,98832.38
2022-12-15T06:55:39.554Z,98827.81
2022-12-15T06:58:09.628Z,98822.16
2022-12-15T07:00:39.134Z,98822.94
2022-12-15T07:03:20.713Z,98819.66
2022-12-15T07:05:50.563Z,98818.97
2022-12-15T07:08:22.533Z,98810.88
2022-12-15T07:10:55.450Z,98805.66
2022-12-15T07:13:25.456Z,98808.28
2022-12-15T07:15:54.903Z,98805.44
2022-12-15T07:18:24.496Z,98807.16
2022-12-15T07:20:55.435Z,98798.09
2022-12-15T07:23:45.956Z,98789.59
2022-12-15T07:26:15.027Z,98787.63
2022-12-15T07:28:46.022Z,98780.53
2022-12-15T07:31:16.762Z,98779.38
2022-12-15T07:33:48.744Z,98781.00
2022-12-15T07:36:19.489Z,98769.09
2022-12-15T07:38:50.434Z,98771.47
2022-12-15T07:41:22.054Z,98760.50
2022-12-15T07:43:51.758Z,98764.97
2022-12-15T07:46:21.504Z,98761.31
2022-12-15T07:48:51.615Z,98759.56
2022-12-15T07:51:22.103Z,98757.69
2022-12-15T07:53:52.635Z,98757.78
2022-12-15T07:56:22.258Z,98756.84
2022-12-15T07:58:53.041Z,98745.75
2022-12-15T08:01:23.230Z,98739.53
2022-12-15T08:03:52.889Z,98736.78
2022-12-15T08:06:22.614Z,98733.94
2022-12-15T08:08:53.182Z,98729.38
2022-12-15T08:11:27.413Z,98721.44
2022-12-15T08:14:06.865Z,98722.16
2022-12-15T08:16:40.798Z,98714.53
2022-12-15T08:19:14.768Z,98713.22
2022-12-15T08:21:49.867Z,98716.03
2022-12-15T08:24:20.619Z,98713.63
2022-12-15T08:26:51.329Z,98708.09
2022-12-15T08:32:10.896Z,98703.78
2022-12-15T08:34:40.913Z,98701.03
2022-12-15T08:37:10.629Z,98689.84
2022-12-15T08:39:40.283Z,98684.75
2022-12-15T08:42:10.040Z,98689.97
2022-12-15T08:44:40.018Z,98683.75
2022-12-15T08:47:09.755Z,98684.53
2022-12-15T08:49:39.509Z,98691.22
2022-12-15T08:52:09.217Z,98680.72
2022-12-15T08:54:39.003Z,98673.94
2022-12-15T08:57:08.514Z,98679.91
2022-12-15T08:59:38.045Z,98681.31
2022-12-15T09:02:08.265Z,98678.63
2022-12-15T09:04:37.782Z,98669.31
2022-12-15T09:07:07.569Z,98669.19
2022-12-15T09:09:37.127Z,98667.78
2022-12-15T09:12:07.247Z,98663.38
2022-12-15T09:14:36.870Z,98663.25
2022-12-15T09:17:07.661Z,98654.50
2022-12-15T09:19:38.635Z,98653.91
2022-12-15T09:22:09.196Z,98646.72
2022-12-15T09:24:38.868Z,98646.00
2022-12-15T09:27:08.767Z,98650.25
2022-12-15T09:29:38.607Z,98640.66
2022-12-15T09:32:13.827Z,98641.47
2022-12-15T09:34:44.722Z,98635.69
2022-12-15T09:37:19.244Z,98635.06
2022-12-15T09:39:50.819Z,98634.13
2022-12-15T09:42:29.929Z,98623.44
2022-12-15T09:45:16.772Z,98628.78
2022-12-15T09:47:58.848Z,98623.81
2022-12-15T09:50:35.977Z,98633.38
2022-12-15T09:53:23.304Z,98619.19
2022-12-15T09:56:05.087Z,98629.19
2022-12-15T09:59:05.068Z,98629.75
2022-12-15T10:01:49.279Z,98630.72
2022-12-15T10:04:45.271Z,98623.38
2022-12-15T10:07:30.884Z,98616.09
2022-12-15T10:10:00.825Z,98621.44
2022-12-15T10:12:39.597Z,98620.78
2022-12-15T10:15:22.269Z,98621.94
2022-12-15T10:18:08.083Z,98622.44
2022-12-15T10:20:38.362Z,98621.00
2022-12-15T10:23:15.695Z,98620.44
2022-12-15T10:26:02.945Z,98610.94
2022-12-15T10:29:00.243Z,98608.50
2022-12-15T10:31:54.269Z,98608.91
2022-12-15T10:34:36.643Z,98608.91
2022-12-15T10:37:07.413Z,98611.28
2022-12-15T10:39:43.202Z,98610.09
2022-12-15T10:42:20.862Z,98608.53
2022-12-15T10:44:56.469Z,98613.03
2022-12-15T10:47:32.554Z,98617.81
2022-12-15T10:50:25.433Z,98614.94
2022-12-15T10:52:58.706Z,98618.16
2022-12-15T10:58:46.952Z,98612.16
2022-12-15T11:01:26.166Z,98613.97
2022-12-15T11:03:57.628Z,98615.31
2022-12-15T11:06:31.227Z,98613.59
2022-12-15T11:09:24.182Z,98601.13
2022-12-15T11:12:12.861Z,98607.97
2022-12-15T11:14:51.745Z,98594.88
2022-12-15T11:17:25.226Z,98603.00
2022-12-15T11:20:05.025Z,98597.19
2022-12-15T11:22:44.215Z,98592.16
2022-12-15T11:25:27.458Z,98591.13
2022-12-15T11:28:01.754Z,98593.72
2022-12-15T11:30:37.636Z,98595.50
2022-12-15T11:33:10.037Z,98597.16
2022-12-15T11:35:45.151Z,98596.47
2022-12-15T11:38:31.074Z,98598.03
2022-12-15T11:41:23.969Z,98599.25
2022-12-15T11:43:54.351Z,98605.81
2022-12-15T11:47:03.602Z,98599.13
2022-12-15T11:49:41.368Z,98595.25
2022-12-15T11:52:37.932Z,98594.22
2022-12-15T11:55:41.212Z,98599.84
2022-12-15T11:58:52.764Z,98596.84
2022-12-15T12:01:55.533Z,98592.84
2022-12-15T12:04:55.714Z,98592.66
2022-12-15T12:07:41.704Z,98594.78
2022-12-15T12:10:40.224Z,98593.38
2022-12-15T12:13:33.308Z,98592.91
2022-12-15T12:16:05.303Z,98585.97
2022-12-15T12:18:43.152Z,98592.66
2022-12-15T12:21:17.356Z,98592.84
2022-12-15T12:23:52.724Z,98597.53
2022-12-15T12:26:33.612Z,98594.16
2022-12-15T12:29:27.444Z,98599.22
2022-12-15T12:32:04.525Z,98598.19
2022-12-15T12:34:50.962Z,98594.63
2022-12-15T12:37:24.113Z,98595.25
2022-12-15T12:39:55.311Z,98607.00
2022-12-15T12:42:47.901Z,98603.91
2022-12-15T12:45:23.523Z,98611.13
2022-12-15T12:47:57.697Z,98607.06
2022-12-15T12:50:31.435Z,98615.09
2022-12-15T12:53:03.626Z,98611.66
2022-12-15T12:55:44.183Z,98605.53
2022-12-15T12:58:36.053Z,98610.88
2022-12-15T13:01:28.705Z,98619.72
2022-12-15T13:04:14.148Z,98615.50
2022-12-15T13:06:44.073Z,98625.38
2022-12-15T13:09:20.261Z,98626.88
2022-12-15T13:11:52.915Z,98634.97
2022-12-15T13:14:46.587Z,98635.06
2022-12-15T13:17:30.324Z,98637.47
2022-12-15T13:20:03.056Z,98642.72
2022-12-15T13:22:38.580Z,98641.09
2022-12-15T13:25:37.850Z,98635.91
2022-12-15T13:28:19.335Z,98649.06
2022-12-15T13:31:30.011Z,98637.94
2022-12-15T13:34:27.820Z,98641.44
2022-12-15T13:36:59.445Z,98647.91
2022-12-15T13:39:33.602Z,98645.25
2022-12-15T13:45:06.778Z,98647.22
2022-12-15T13:47:36.868Z,98648.38
2022-12-15T13:50:21.593Z,98648.09
2022-12-15T13:56:05.918Z,98658.69
2022-12-15T13:58:44.966Z,98652.72
2022-12-15T14:01:33.011Z,98653.56
2022-12-15T14:04:19.507Z,98651.03
2022-12-15T14:07:02.313Z,98655.38
2022-12-15T14:09:34.773Z,98658.94
2022-12-15T14:12:07.529Z,98658.22
2022-12-15T14:14:44.839Z,98662.59
2022-12-15T14:17:19.417Z,98661.69
2022-12-15T14:19:52.381Z,98661.06
2022-12-15T14:22:29.490Z,98660.88
2022-12-15T14:25:14.913Z,98667.03
2022-12-15T14:27:53.509Z,98665.56
2022-12-15T14:30:35.390Z,98661.94
2022-12-15T14:33:15.609Z,98665.78
2022-12-15T14:35:56.587Z,98668.13
2022-12-15T14:38:32.757Z,98665.75
2022-12-15T14:41:05.106Z,98674.44
2022-12-15T14:43:39.688Z,98672.69
2022-12-15T14:46:21.529Z,98675.22
2022-12-15T14:49:06.791Z,98676.84
2022-12-15T14:51:53.272Z,98675.97
2022-12-15T14:54:40.001Z,98673.44
2022-12-15T14:57:21.942Z,98672.56
2022-12-15T14:59:55.818Z,98668.47
2022-12-15T15:02:27.792Z,98671.09
2022-12-15T15:03:04.145Z,98613.44
2022-12-15T15:05:06.585Z,98664.03
2022-12-15T15:07:39.566Z,98670.09
2022-12-15T15:10:31.025Z,98674.31
2022-12-15T15:13:01.013Z,98670.28
2022-12-15T15:15:39.643Z,98671.19
2022-12-15T15:18:17.198Z,98664.19
2022-12-15T15:20:59.772Z,98667.41
2022-12-15T15:23:33.572Z,98675.44
2022-12-15T15:26:06.864Z,98676.25
2022-12-15T15:28:42.257Z,98679.72
2022-12-15T15:31:28.771Z,98674.47
2022-12-15T15:34:00.177Z,98674.72
2022-12-15T15:36:44.400Z,98676.41
2022-12-15T15:39:19.982Z,98667.81
2022-12-15T15:41:50.654Z,98668.91
2022-12-15T15:44:20.565Z,98670.69
2022-12-15T15:46:56.010Z,98669.72
2022-12-15T15:49:28.749Z,98665.56
2022-12-15T15:51:59.905Z,98675.03
2022-12-15T15:54:37.092Z,98671.50
2022-12-15T15:57:06.844Z,98668.22
2022-12-15T15:59:38.030Z,98669.16
2022-12-15T16:02:11.658Z,98671.72
2022-12-15T16:04:43.560Z,98671.44
2022-12-15T16:07:32.094Z,98663.91
2022-12-15T16:10:02.120Z,98664.03
2022-12-15T16:12:46.868Z,98664.91
2022-12-15T16:15:20.152Z,98665.81
2022-12-15T16:17:50.133Z,98669.31
2022-12-15T16:20:22.633Z,98663.22
2022-12-15T16:22:53.368Z,98662.13
2022-12-15T16:25:50.050Z,98653.72
2022-12-15T16:28:25.034Z,98660.75
2022-12-15T16:31:02.718Z,98651.44
2022-12-15T16:33:34.415Z,98665.16
2022-12-15T16:36:24.019Z,98662.47
2022-12-15T16:38:55.935Z,98661.81
2022-12-15T16:41:28.954Z,98660.25
2022-12-15T16:44:02.327Z,98667.13
2022-12-15T16:46:32.890Z,98670.53
2022-12-15T16:49:06.830Z,98673.88
2022-12-15T16:51:44.011Z,98663.50
2022-12-15T16:54:28.523Z,98669.56
2022-12-15T16:57:01.243Z,98682.66
2022-12-15T16:59:33.432Z,98672.38
2022-12-15T17:02:30.309Z,98665.31
2022-12-15T17:05:01.270Z,98666.38
2022-12-15T17:07:32.050Z,98670.72
2022-12-15T17:10:03.473Z,98667.25
2022-12-15T17:12:34.866Z,98666.38
2022-12-15T17:15:20.057Z,98668.84
2022-12-15T17:17:54.849Z,98671.63
2022-12-15T17:20:31.429Z,98666.38
2022-12-15T17:23:09.206Z,98668.19
2022-12-15T17:28:38.077Z,98664.84
2022-12-15T17:31:14.824Z,98664.06
2022-12-15T17:33:49.777Z,98658.06
2022-12-15T17:36:26.179Z,98655.34
2022-12-15T17:39:04.333Z,98653.59
2022-12-15T17:41:58.696Z,98654.66
2022-12-15T17:44:34.895Z,98653.78
2022-12-15T17:47:09.332Z,98651.34
2022-12-15T17:49:43.045Z,98650.50
2022-12-15T17:52:29.006Z,98651.22
2022-12-15T17:54:59.747Z,98641.94
2022-12-15T17:57:32.984Z,98642.03
2022-12-15T18:00:05.187Z,98635.22
2022-12-15T18:02:35.218Z,98635.22
2022-12-15T18:05:06.097Z,98636.97
2022-12-15T18:07:35.765Z,98637.00
2022-12-15T18:10:05.952Z,98631.84
2022-12-15T18:12:37.143Z,98626.75
2022-12-15T18:15:20.827Z,98623.19
2022-12-15T18:17:51.107Z,98626.81
2022-12-15T18:20:21.754Z,98624.28
2022-12-15T18:22:52.803Z,98623.44
2022-12-15T18:25:29.385Z,98617.56
2022-12-15T18:28:02.535Z,98613.25
2022-12-15T18:30:32.477Z,98615.84
2022-12-15T18:33:02.002Z,98619.34
2022-12-15T18:35:45.073Z,98621.81
2022-12-15T18:38:23.826Z,98622.66
2022-12-15T18:40:59.447Z,98617.63
2022-12-15T18:43:34.933Z,98615.84
2022-12-15T18:46:04.963Z,98618.56
2022-12-15T18:48:38.627Z,98621.94
2022-12-15T18:51:18.764Z,98618.41
2022-12-15T18:53:50.101Z,98621.19
2022-12-15T18:56:22.763Z,98612.56
2022-12-15T18:58:52.314Z,98617.75
2022-12-15T19:01:22.248Z,98620.31
2022-12-15T19:03:52.053Z,98611.81
2022-12-15T19:06:26.347Z,98614.38
2022-12-15T19:08:56.243Z,98612.66
2022-12-15T19:11:32.130Z,98616.84
2022-12-15T19:14:03.897Z,98618.66
2022-12-15T19:16:53.215Z,98614.47
2022-12-15T19:19:41.625Z,98612.72
2022-12-15T19:22:31.606Z,98617.00
2022-12-15T19:25:03.249Z,98619.63
2022-12-15T19:27:33.289Z,98618.81
2022-12-15T19:30:03.337Z,98615.41
2022-12-15T19:32:32.814Z,98618.84
2022-12-15T19:35:05.653Z,98617.13
2022-12-15T19:37:37.755Z,98620.50
2022-12-15T19:40:18.099Z,98619.69
2022-12-15T19:42:49.755Z,98611.94
2022-12-15T19:45:25.047Z,98607.69
2022-12-15T19:47:55.110Z,98602.59
2022-12-15T19:50:27.928Z,98600.88
2022-12-15T19:53:01.879Z,98594.84
2022-12-15T19:55:37.209Z,98592.25
2022-12-15T19:58:32.821Z,98586.22
2022-12-15T20:01:13.355Z,98599.06
2022-12-15T20:03:48.546Z,98588.84
2022-12-15T20:06:21.691Z,98597.53
2022-12-15T20:08:51.590Z,98595.59
2022-12-15T20:11:27.903Z,98589.72
2022-12-15T20:13:57.875Z,98600.09
2022-12-15T20:16:27.487Z,98594.97
2022-12-15T20:18:57.470Z,98606.94
2022-12-15T20:21:32.611Z,98603.41
2022-12-15T20:24:08.780Z,98605.16
2022-12-15T20:26:40.562Z,98594.03
2022-12-15T20:29:25.573Z,98597.38
2022-12-15T20:31:56.197Z,98595.84
2022-12-15T20:34:26.971Z,98594.94
2022-12-15T20:36:56.666Z,98594.16
2022-12-15T20:39:32.388Z,98598.31
2022-12-15T20:42:02.119Z,98590.69
2022-12-15T20:44:31.485Z,98589.78
2022-12-15T20:47:00.905Z,98586.31
2022-12-15T20:49:30.615Z,98581.16
2022-12-15T20:52:00.576Z,98582.06
2022-12-15T20:54:30.544Z,98583.78
2022-12-15T20:56:59.997Z,98587.19
2022-12-15T20:59:29.532Z,98586.31
2022-12-15T21:01:59.311Z,98582.03
2022-12-15T21:04:31.528Z,98579.38
2022-12-15T21:07:01.435Z,98581.09
2022-12-15T21:09:31.111Z,98587.13
2022-12-15T21:12:04.371Z,98584.53
2022-12-15T21:14:37.300Z,98584.53
2022-12-15T21:17:07.375Z,98590.50
2022-12-15T21:19:36.973Z,98591.38
2022-12-15T21:22:07.800Z,98582.84
2022-12-15T21:24:37.947Z,98587.13
2022-12-15T21:27:11.630Z,98594.81
2022-12-15T21:29:43.304Z,98587.13
2022-12-15T21:32:16.433Z,98579.38
2022-12-15T21:34:46.091Z,98571.63
2022-12-15T21:37:46.335Z,98572.25
2022-12-15T21:40:21.638Z,98574.13
2022-12-15T21:42:52.337Z,98574.28
2022-12-15T21:45:24.511Z,98577.66
2022-12-15T21:48:12.794Z,98574.34
2022-12-15T21:50:46.645Z,98568.41
2022-12-15T21:53:18.921Z,98569.28
2022-12-15T21:55:48.772Z,98555.63
2022-12-15T21:58:25.935Z,98558.03
2022-12-15T22:00:56.101Z,98558.97
2022-12-15T22:03:25.844Z,98557.34
2022-12-15T22:05:55.093Z,98552.25
2022-12-15T22:08:25.230Z,98551.41
2022-12-15T22:10:56.152Z,98543.66
2022-12-15T22:13:26.262Z,98551.50
2022-12-15T22:15:55.971Z,98542.09
2022-12-15T22:18:25.668Z,98543.03
2022-12-15T22:20:55.310Z,98538.81
2022-12-15T22:23:24.873Z,98533.72
2022-12-15T22:25:57.504Z,98529.38
2022-12-15T22:28:30.277Z,98527.69
2022-12-15T22:30:59.879Z,98530.97
2022-12-15T22:33:30.104Z,98526.03
2022-12-15T22:36:00.088Z,98520.13
2022-12-15T22:38:29.998Z,98518.41
2022-12-15T22:41:01.201Z,98514.97
2022-12-15T22:43:42.026Z,98513.25
2022-12-15T22:46:14.928Z,98508.13
2022-12-15T22:48:48.684Z,98511.56
2022-12-15T22:51:20.125Z,98502.16
2022-12-15T22:53:50.037Z,98501.38
2022-12-15T22:56:35.427Z,98498.72
2022-12-15T22:59:10.955Z,98499.66
2022-12-15T23:01:40.793Z,98502.28
2022-12-15T23:04:10.675Z,98495.47
2022-12-15T23:06:41.302Z,98494.63
2022-12-15T23:09:11.179Z,98489.50
2022-12-15T23:11:40.860Z,98495.47
2022-12-15T23:14:15.421Z,98492.03
2022-12-15T23:16:47.423Z,98492.00
2022-12-15T23:19:25.875Z,98487.78
2022-12-15T23:21:55.855Z,98493.81
2022-12-15T23:24:25.679Z,98491.31
2022-12-15T23:26:55.300Z,98487.84
2022-12-15T23:29:25.888Z,98491.34
2022-12-15T23:31:55.575Z,98487.91
2022-12-15T23:34:25.149Z,98489.59
2022-12-15T23:36:54.578Z,98490.47
2022-12-15T23:39:24.564Z,98486.97
2022-12-15T23:41:54.173Z,98480.88
2022-12-15T23:44:24.385Z,98485.06
2022-12-15T23:46:54.003Z,98480.75
2022-12-15T23:49:23.537Z,98484.19
2022-12-15T23:51:53.316Z,98488.47
2022-12-15T23:54:24.664Z,98496.97
2022-12-15T23:56:54.777Z,98491.91
2022-12-15T23:59:24.301Z,98492.69
